Time;durP1;ratioP1;P1;durP2;ratioP2;P2;SDS_P1;SDS_P2;PMS_P1;PMS_P2;Temp;Humidity;BMP_temperature;BMP_pressure;BME280_temperature;BME280_humidity;BME280_pressure;Samples;Min_cycle;Max_cycle;Signal;HPM_P1;HPM_P2
2022/08/25 00:01:34;;;;;;;0.10;0.10;;;;;;;25.38;63.54;101773.03;5099450;28;20028;-78
2022/08/25 00:04:04;;;;;;;0.10;0.10;;;;;;;25.34;63.50;101777.75;5102172;28;20024;-78
2022/08/25 00:06:33;;;;;;;0.10;0.10;;;;;;;25.33;63.36;101775.16;5099212;28;20043;-78
2022/08/25 00:08:59;;;;;;;0.10;0.10;;;;;;;25.28;63.23;101771.88;5093184;28;20089;-77
2022/08/25 00:11:29;;;;;;;0.50;0.50;;;;;;;25.23;63.71;101769.47;5094192;28;20149;-77
2022/08/25 00:14:03;;;;;;;0.10;0.10;;;;;;;25.20;63.43;101765.13;5101113;28;20047;-78
2022/08/25 00:16:31;;;;;;;0.45;0.45;;;;;;;25.13;63.59;101769.22;5091910;28;20054;-78
2022/08/25 00:19:01;;;;;;;0.10;0.10;;;;;;;25.10;63.81;101764.03;5098540;28;20031;-78
2022/08/25 00:21:30;;;;;;;0.13;0.13;;;;;;;25.06;64.16;101767.94;5098601;28;20024;-79
2022/08/25 00:23:57;;;;;;;0.10;0.10;;;;;;;25.03;64.08;101768.13;5100852;28;20039;-78
2022/08/25 00:26:25;;;;;;;0.40;0.40;;;;;;;25.02;64.22;101766.38;5099374;28;20039;-77
2022/08/25 00:28:52;;;;;;;0.10;0.10;;;;;;;24.97;64.29;101758.56;5099192;28;20036;-78
2022/08/25 00:31:20;;;;;;;0.10;0.10;;;;;;;24.95;64.34;101763.22;5093039;28;20028;-78
2022/08/25 00:33:48;;;;;;;0.40;0.40;;;;;;;24.91;64.34;101767.09;5093485;28;20045;-78
2022/08/25 00:36:16;;;;;;;0.55;0.55;;;;;;;24.90;64.45;101761.75;5092303;28;20039;-78
2022/08/25 00:38:44;;;;;;;0.10;0.10;;;;;;;24.87;64.50;101763.72;5093241;28;20016;-78
2022/08/25 00:41:13;;;;;;;0.10;0.10;;;;;;;24.85;64.56;101762.09;5095038;28;20401;-78
2022/08/25 00:46:22;;;;;;;0.10;0.10;;;;;;;24.81;64.58;101758.72;5071524;28;20411;-77
2022/08/25 00:48:56;;;;;;;0.00;0.00;;;;;;;24.81;64.31;101753.28;5059620;28;20124;-76
2022/08/25 00:51:38;;;;;;;0.20;0.20;;;;;;;24.78;64.42;101750.75;5048670;28;20376;-77
2022/08/25 00:54:05;;;;;;;0.35;0.25;;;;;;;24.75;64.46;101752.81;5053195;28;20064;-77
2022/08/25 00:56:33;;;;;;;0.10;0.10;;;;;;;24.71;64.40;101754.84;5054021;28;20025;-77
2022/08/25 00:59:01;;;;;;;0.22;0.22;;;;;;;24.68;64.39;101753.22;5057859;28;20025;-77
2022/08/25 01:01:29;;;;;;;0.20;0.20;;;;;;;24.67;64.78;101745.19;5052799;28;20029;-77
2022/08/25 01:03:55;;;;;;;0.10;0.10;;;;;;;24.65;64.92;101736.28;5039896;28;20448;-76
2022/08/25 01:06:22;;;;;;;0.20;0.20;;;;;;;24.64;64.65;101742.66;5036202;28;20033;-77
2022/08/25 01:08:50;;;;;;;0.05;0.05;;;;;;;24.64;64.86;101750.78;5043169;28;20037;-77
2022/08/25 01:11:16;;;;;;;0.10;0.10;;;;;;;24.60;64.42;101736.56;5047483;28;20136;-77
2022/08/25 01:16:18;;;;;;;0.10;0.10;;;;;;;24.59;65.03;101742.09;5066231;28;20768;-78
2022/08/25 01:18:48;;;;;;;0.40;0.40;;;;;;;24.58;65.17;101733.06;5054321;28;20111;-77
2022/08/25 01:21:16;;;;;;;0.25;0.25;;;;;;;24.55;64.66;101733.28;5059548;28;20029;-77
2022/08/25 01:23:43;;;;;;;0.10;0.10;;;;;;;24.53;65.08;101733.38;5050580;28;20067;-78
2022/08/25 01:26:15;;;;;;;0.20;0.20;;;;;;;24.55;64.52;101736.84;5049153;28;20029;-76
2022/08/25 01:31:35;;;;;;;0.10;0.10;;;;;;;24.49;64.86;101741.81;5047028;28;20041;-77
2022/08/25 01:34:01;;;;;;;0.05;0.05;;;;;;;24.46;64.87;101737.47;5056077;28;20029;-77
2022/08/25 01:36:31;;;;;;;0.10;0.10;;;;;;;24.45;65.15;101738.44;5049682;28;20036;-76
2022/08/25 01:38:58;;;;;;;0.10;0.10;;;;;;;24.44;65.52;101739.41;5054948;28;20125;-77
2022/08/25 01:41:50;;;;;;;0.20;0.20;;;;;;;24.44;65.58;101731.28;5049737;28;20025;-77
2022/08/25 01:44:18;;;;;;;0.10;0.10;;;;;;;24.38;65.32;101735.25;5051493;28;20029;-78
2022/08/25 01:46:44;;;;;;;1.23;0.75;;;;;;;24.35;65.10;101732.75;5054487;28;20048;-77
2022/08/25 01:49:10;;;;;;;0.10;0.10;;;;;;;24.35;64.86;101731.84;5055628;28;20041;-76
2022/08/25 01:51:50;;;;;;;0.10;0.10;;;;;;;24.32;64.89;101729.34;5048671;28;20047;-77
2022/08/25 01:54:16;;;;;;;0.10;0.10;;;;;;;24.28;65.10;101733.25;5047370;28;20082;-76
2022/08/25 01:56:42;;;;;;;0.98;0.55;;;;;;;24.26;65.16;101724.34;5050573;28;20041;-76
2022/08/25 01:59:09;;;;;;;0.32;0.32;;;;;;;24.22;65.24;101724.53;5057156;28;20029;-77
2022/08/25 02:01:35;;;;;;;0.10;0.10;;;;;;;24.20;64.99;101718.34;5049168;28;20392;-77
2022/08/25 02:04:01;;;;;;;0.10;0.10;;;;;;;24.16;65.42;101714.09;5056681;28;20573;-78
2022/08/25 02:06:32;;;;;;;0.10;0.10;;;;;;;24.17;65.26;101725.78;5053990;28;20399;-78
2022/08/25 02:09:03;;;;;;;0.10;0.10;;;;;;;24.11;65.30;101718.06;5050624;28;20036;-77
2022/08/25 02:11:31;;;;;;;4.45;0.73;;;;;;;24.07;65.23;101720.09;5050474;28;20111;-77
2022/08/25 02:13:58;;;;;;;0.20;0.20;;;;;;;24.03;65.27;101721.25;5052569;28;20107;-77
2022/08/25 02:16:29;;;;;;;0.73;0.73;;;;;;;24.01;65.19;101724.06;5049508;28;20037;-77
2022/08/25 02:18:58;;;;;;;0.20;0.20;;;;;;;23.98;65.25;101720.69;5051006;28;20029;-77
2022/08/25 02:21:24;;;;;;;0.10;0.10;;;;;;;23.94;65.40;101708.28;5049586;28;20048;-77
2022/08/25 02:23:51;;;;;;;0.20;0.20;;;;;;;23.91;65.67;101706.63;5047231;28;20048;-76
2022/08/25 02:26:18;;;;;;;0.20;0.20;;;;;;;23.90;65.07;101708.47;5046667;28;20029;-77
2022/08/25 02:28:46;;;;;;;0.65;0.65;;;;;;;23.87;65.45;101705.94;5033810;28;20037;-76
2022/08/25 02:31:14;;;;;;;0.10;0.10;;;;;;;23.85;65.28;101713.31;5039346;28;20044;-77
2022/08/25 02:33:40;;;;;;;0.20;0.20;;;;;;;23.82;65.32;101705.34;5033394;28;20040;-77
2022/08/25 02:36:07;;;;;;;0.30;0.30;;;;;;;23.79;65.15;101710.09;5033704;28;20110;-77
2022/08/25 02:38:34;;;;;;;0.40;0.40;;;;;;;23.75;65.50;101710.28;5034875;28;20030;-76
2022/08/25 02:41:08;;;;;;;0.65;0.43;;;;;;;23.72;65.23;101706.91;5034536;28;20064;-77
2022/08/25 02:43:34;;;;;;;0.25;0.25;;;;;;;23.69;65.30;101698.97;5032571;28;20033;-77
2022/08/25 02:46:00;;;;;;;0.10;0.10;;;;;;;23.68;65.30;101691.84;5038842;28;20368;-77
2022/08/25 02:48:27;;;;;;;0.90;0.90;;;;;;;23.65;65.42;101690.19;5036495;28;20065;-77
2022/08/25 02:50:53;;;;;;;0.13;0.13;;;;;;;23.62;65.32;101692.22;5034798;28;20052;-76
2022/08/25 02:53:20;;;;;;;0.15;0.15;;;;;;;23.58;65.15;101689.69;5031845;28;20109;-77
2022/08/25 02:55:47;;;;;;;0.35;0.35;;;;;;;23.54;65.13;101680.03;5036665;28;20052;-77
2022/08/25 02:58:14;;;;;;;0.10;0.10;;;;;;;23.51;65.39;101677.50;5038465;28;20129;-78
2022/08/25 03:00:40;;;;;;;0.15;0.15;;;;;;;23.48;65.48;101680.41;5039119;28;20032;-78
2022/08/25 03:03:06;;;;;;;1.17;1.05;;;;;;;23.43;65.42;101677.97;5035954;28;20060;-77
2022/08/25 03:05:33;;;;;;;0.32;0.32;;;;;;;23.41;65.38;101679.94;5037610;28;20025;-77
2022/08/25 03:07:59;;;;;;;0.75;0.68;;;;;;;23.39;65.43;101675.53;5036495;28;20485;-77
2022/08/25 03:10:25;;;;;;;0.52;0.52;;;;;;;23.34;65.38;101678.56;5039211;28;20024;-77
2022/08/25 03:12:51;;;;;;;0.30;0.30;;;;;;;23.33;65.41;101675.91;5037995;28;20029;-77
2022/08/25 03:15:18;;;;;;;0.17;0.17;;;;;;;23.30;65.51;101670.72;5036773;28;20025;-78
2022/08/25 03:17:45;;;;;;;1.33;0.45;;;;;;;23.26;65.28;101661.91;5040068;28;20064;-77
2022/08/25 03:20:12;;;;;;;0.15;0.15;;;;;;;23.24;65.56;101667.41;5036931;28;20033;-77
2022/08/25 03:22:38;;;;;;;0.10;0.10;;;;;;;23.22;65.32;101663.94;5038116;28;20467;-77
2022/08/25 03:27:52;;;;;;;0.35;0.35;;;;;;;23.18;65.17;101662.38;5033101;28;20102;-80
2022/08/25 03:30:18;;;;;;;0.10;0.10;;;;;;;23.15;65.25;101659.81;5031524;28;20040;-78
2022/08/25 03:32:45;;;;;;;0.10;0.10;;;;;;;23.11;65.28;101655.56;5037455;28;20025;-77
2022/08/25 03:35:12;;;;;;;0.60;0.60;;;;;;;23.08;65.24;101651.22;5034974;28;20029;-78
2022/08/25 03:37:39;;;;;;;0.25;0.25;;;;;;;23.05;65.21;101648.72;5034680;28;20035;-77
2022/08/25 03:40:09;;;;;;;0.10;0.10;;;;;;;23.02;65.26;101651.59;5033764;28;20115;-77
2022/08/25 03:42:39;;;;;;;0.30;0.30;;;;;;;23.00;65.27;101642.69;5033146;28;20107;-76
2022/08/25 03:45:06;;;;;;;0.10;0.10;;;;;;;22.98;65.06;101649.16;5035557;28;20032;-77
2022/08/25 03:47:33;;;;;;;0.10;0.10;;;;;;;22.95;65.23;101639.41;5038353;28;20064;-76
2022/08/25 03:49:59;;;;;;;0.45;0.45;;;;;;;22.92;65.30;101637.75;5032634;28;20043;-77
2022/08/25 03:52:25;;;;;;;0.10;0.10;;;;;;;22.90;65.12;101634.28;5035226;28;20038;-77
2022/08/25 03:54:51;;;;;;;0.47;0.47;;;;;;;22.87;65.12;101634.47;5032781;28;20061;-77
2022/08/25 03:57:19;;;;;;;0.63;0.63;;;;;;;22.84;65.02;101629.25;5035229;28;20112;-77
2022/08/25 03:59:45;;;;;;;0.10;0.10;;;;;;;22.81;65.28;101625.88;5037641;28;20029;-78
2022/08/25 04:02:11;;;;;;;0.43;0.43;;;;;;;22.78;65.17;101622.38;5042002;28;20040;-78
2022/08/25 04:04:38;;;;;;;0.10;0.10;;;;;;;22.75;64.83;101629.78;5037449;28;20029;-77
2022/08/25 04:07:04;;;;;;;0.10;0.10;;;;;;;22.74;64.94;101630.72;5030923;28;20025;-77
2022/08/25 04:09:31;;;;;;;0.40;0.38;;;;;;;22.71;64.98;101625.53;5034614;28;20410;-76
2022/08/25 04:11:57;;;;;;;0.22;0.22;;;;;;;22.69;64.89;101627.44;5030152;28;20032;-77
2022/08/25 04:14:24;;;;;;;1.00;1.00;;;;;;;22.65;64.79;101620.50;5034438;28;20029;-77
2022/08/25 04:16:51;;;;;;;0.20;0.20;;;;;;;22.62;64.83;101619.69;5033904;28;20037;-77
2022/08/25 04:19:17;;;;;;;0.10;0.10;;;;;;;22.60;64.76;101618.06;5033707;28;20033;-77
2022/08/25 04:21:44;;;;;;;0.13;0.13;;;;;;;22.58;64.70;101615.44;5032742;28;20402;-77
2022/08/25 04:24:12;;;;;;;0.10;0.10;;;;;;;22.57;64.69;101621.81;5034700;28;20037;-77
2022/08/25 04:26:43;;;;;;;0.20;0.20;;;;;;;22.56;64.65;101617.34;5032871;28;20037;-77
2022/08/25 04:29:11;;;;;;;0.25;0.25;;;;;;;22.51;64.56;101614.06;5033855;28;20445;-77
2022/08/25 04:31:41;;;;;;;0.10;0.10;;;;;;;22.51;64.48;101610.50;5033538;28;20044;-77
2022/08/25 04:34:08;;;;;;;0.10;0.10;;;;;;;22.45;64.38;101614.41;5035707;28;20395;-77
2022/08/25 04:36:34;;;;;;;0.10;0.10;;;;;;;22.43;64.40;101605.53;5039491;28;20080;-78
2022/08/25 04:39:01;;;;;;;0.10;0.10;;;;;;;22.39;64.44;101614.75;5039652;28;20041;-77
2022/08/25 04:41:28;;;;;;;0.10;0.10;;;;;;;22.37;64.36;101612.16;5035869;28;20029;-77
2022/08/25 04:43:58;;;;;;;0.25;0.25;;;;;;;22.35;64.40;101615.88;5032567;28;20049;-77
2022/08/25 04:46:26;;;;;;;0.10;0.10;;;;;;;22.33;64.35;101615.09;5033095;28;20495;-77
2022/08/25 04:48:55;;;;;;;0.10;0.10;;;;;;;22.30;64.40;101614.28;5033723;28;20033;-77
2022/08/25 04:51:28;;;;;;;0.10;0.10;;;;;;;22.27;64.39;101605.53;5033123;28;20109;-77
2022/08/25 04:53:57;;;;;;;0.10;0.10;;;;;;;22.26;64.27;101606.47;5034163;28;20561;-77
2022/08/25 04:56:23;;;;;;;0.20;0.20;;;;;;;22.25;64.37;101613.69;5030440;28;20028;-77
2022/08/25 04:58:51;;;;;;;0.28;0.28;;;;;;;22.24;64.37;101611.09;5033193;28;20036;-77
2022/08/25 05:01:20;;;;;;;0.10;0.10;;;;;;;22.23;64.48;101617.44;5029078;28;20033;-76
2022/08/25 05:03:50;;;;;;;0.20;0.20;;;;;;;22.22;64.25;101619.28;5031059;28;20030;-76
2022/08/25 05:06:16;;;;;;;0.10;0.10;;;;;;;22.21;64.34;101625.63;5032255;28;20536;-77
2022/08/25 05:08:43;;;;;;;0.10;0.10;;;;;;;22.20;64.25;101621.19;5035196;28;20095;-76
2022/08/25 05:11:13;;;;;;;0.45;0.45;;;;;;;22.22;64.28;101619.28;5031695;28;20034;-76
2022/08/25 05:13:40;;;;;;;0.10;0.10;;;;;;;22.21;64.37;101628.31;5030204;28;20049;-76
2022/08/25 05:16:06;;;;;;;0.28;0.28;;;;;;;22.23;64.30;101620.13;5032346;28;20060;-81
2022/08/25 05:18:34;;;;;;;0.30;0.30;;;;;;;22.24;64.33;101628.16;5035206;28;20033;-78
2022/08/25 05:21:03;;;;;;;0.20;0.20;;;;;;;22.26;64.40;101625.38;5035048;28;20025;-79
2022/08/25 05:23:30;;;;;;;0.10;0.10;;;;;;;22.26;64.13;101626.25;5029664;28;20531;-77
2022/08/25 05:26:03;;;;;;;0.20;0.20;;;;;;;22.29;64.01;101625.19;5025914;28;20072;-76
2022/08/25 05:28:29;;;;;;;1.23;0.55;;;;;;;22.27;63.96;101633.38;5030832;28;20113;-78
2022/08/25 05:30:59;;;;;;;9.73;1.27;;;;;;;22.29;63.96;101636.88;5029344;28;20430;-83
2022/08/25 05:33:26;;;;;;;0.10;0.10;;;;;;;22.31;63.83;101636.78;5033561;28;20045;-83
2022/08/25 05:35:54;;;;;;;0.10;0.10;;;;;;;22.35;63.65;101634.78;5027854;28;20029;-83
2022/08/25 05:38:21;;;;;;;0.00;0.00;;;;;;;22.38;63.67;101634.63;5028782;28;20113;-83
2022/08/25 05:40:47;;;;;;;0.32;0.32;;;;;;;22.41;63.55;101635.31;5034873;28;20033;-83
2022/08/25 05:43:14;;;;;;;0.20;0.20;;;;;;;22.44;63.36;101637.84;5036038;28;20127;-83
2022/08/25 05:45:41;;;;;;;0.20;0.20;;;;;;;22.49;63.30;101640.28;5030911;28;20022;-83
2022/08/25 05:48:07;;;;;;;0.10;0.10;;;;;;;22.52;63.35;101639.22;5027863;28;20115;-83
2022/08/25 05:50:33;;;;;;;0.10;0.10;;;;;;;22.58;63.42;101637.06;5026522;28;20030;-83
2022/08/25 05:52:59;;;;;;;0.43;0.35;;;;;;;22.65;63.18;101636.69;5024386;28;20099;-83
2022/08/25 05:55:28;;;;;;;0.43;0.43;;;;;;;22.72;62.61;101643.47;5034769;28;20029;-83
2022/08/25 05:57:54;;;;;;;0.30;0.30;;;;;;;22.83;62.49;101646.41;5032914;28;20390;-83
2022/08/25 06:00:21;;;;;;;0.30;0.30;;;;;;;22.93;62.30;101647.59;5032971;28;20111;-83
2022/08/25 06:02:48;;;;;;;0.70;0.70;;;;;;;23.04;62.04;101643.38;5037555;28;20064;-83
2022/08/25 06:08:35;;;;;;;0.10;0.10;;;;;;;23.31;61.37;101645.41;5187507;27;20185;-81
2022/08/25 06:11:31;;;;;;;0.10;0.10;;;;;;;23.47;60.91;101631.81;5102015;27;20046;-81
2022/08/25 06:14:03;;;;;;;0.32;0.32;;;;;;;23.58;60.21;101632.88;4282521;27;23905227;-81
2022/08/25 06:17:06;;;;;;;;;;;;;;;;;;;;;
2022/08/25 06:20:12;;;;;;;;;;;;;;;;;;;;;
2022/08/25 06:23:09;;;;;;;0.20;0.20;;;;;;;23.81;59.27;101633.25;5174217;27;19906;-81
2022/08/25 06:25:39;;;;;;;0.15;0.15;;;;;;;23.82;59.11;101635.00;5192195;27;20018;-81
2022/08/25 06:28:07;;;;;;;0.10;0.10;;;;;;;23.82;59.68;101624.19;5190864;27;20029;-81
2022/08/25 06:30:50;;;;;;;0.30;0.30;;;;;;;23.88;58.92;101629.19;5187246;27;20051;-82
2022/08/25 06:33:32;;;;;;;0.10;0.10;;;;;;;23.85;58.13;101623.09;5194790;27;20036;-82
2022/08/25 06:36:04;;;;;;;0.30;0.30;;;;;;;23.84;59.19;101622.25;5186732;27;20011;-82
2022/08/25 06:39:07;;;;;;;2.08;0.95;;;;;;;23.85;58.96;101626.69;5178659;27;20026;-81
2022/08/25 06:41:49;;;;;;;0.35;0.35;;;;;;;23.84;59.12;101622.25;5151412;27;20121;-81
2022/08/25 06:45:58;;;;;;;0.80;0.80;;;;;;;23.82;58.55;101629.59;5180635;27;20034;-82
2022/08/25 06:48:39;;;;;;;0.55;0.43;;;;;;;23.81;59.02;101630.56;5100756;27;20105;-82
2022/08/25 06:53:05;;;;;;;0.20;0.20;;;;;;;23.81;58.41;101633.25;5166706;27;20026;-82
2022/08/25 06:55:13;;;;;;;0.50;0.50;;;;;;;23.86;58.61;101636.56;5170639;27;20022;-82
2022/08/25 06:58:25;;;;;;;;;;;;;;;;;;;;;
2022/08/25 07:01:44;;;;;;;;;;;;;;;;;;;;;
2022/08/25 07:05:19;;;;;;;;;;;;;;;;;;;;;
2022/08/25 07:10:09;;;;;;;0.10;0.10;;;;;;;24.27;57.15;101632.16;5059702;28;20037;-82
2022/08/25 07:11:33;;;;;;;0.75;0.63;;;;;;;24.26;56.99;101632.28;5054695;22;20318;-82
2022/08/25 07:14:01;;;;;;;1.02;0.88;;;;;;;24.32;57.18;101631.88;5096570;28;20398;-82
2022/08/25 07:16:28;;;;;;;0.10;0.10;;;;;;;24.37;56.88;101629.72;5104473;28;20047;-82
2022/08/25 07:18:55;;;;;;;0.32;0.32;;;;;;;24.44;56.77;101625.63;5098604;28;20028;-83
2022/08/25 07:21:22;;;;;;;3.00;1.52;;;;;;;24.49;56.04;101630.75;5095614;28;20443;-82
2022/08/25 07:23:48;;;;;;;0.45;0.45;;;;;;;24.55;55.89;101631.22;5087472;28;21363;-83
2022/08/25 07:26:18;;;;;;;3.65;0.60;;;;;;;24.59;55.58;101631.88;5096259;28;20028;-84
2022/08/25 07:28:44;;;;;;;0.10;0.10;;;;;;;24.71;56.01;101633.78;5094397;28;20040;-83
2022/08/25 07:31:12;;;;;;;0.20;0.20;;;;;;;24.81;54.88;101625.91;5094360;28;20073;-83
2022/08/25 07:35:13;;;;;;;0.43;0.43;;;;;;;24.91;54.94;101619.84;5096608;28;20073;-82
2022/08/25 07:36:24;;;;;;;2.30;0.47;;;;;;;25.03;54.77;101617.19;5093796;28;20035;-83
2022/08/25 07:38:50;;;;;;;0.10;0.10;;;;;;;25.15;54.67;101614.59;5096298;28;20479;-83
2022/08/25 07:41:17;;;;;;;0.10;0.10;;;;;;;25.26;54.70;101616.53;5089064;28;20120;-82
2022/08/25 07:43:44;;;;;;;0.10;0.10;;;;;;;25.36;54.12;101617.63;5079655;28;20488;-82
2022/08/25 07:46:10;;;;;;;0.22;0.22;;;;;;;25.46;53.83;101609.72;5090542;28;20413;-82
2022/08/25 07:48:36;;;;;;;0.00;0.00;;;;;;;25.58;54.21;101610.69;5092915;28;20483;-83
2022/08/25 07:51:08;;;;;;;0.30;0.30;;;;;;;25.73;54.14;101617.72;5092736;28;20020;-83
2022/08/25 07:53:35;;;;;;;0.30;0.30;;;;;;;25.80;53.83;101618.16;5094001;28;20502;-83
2022/08/25 07:56:01;;;;;;;0.28;0.28;;;;;;;25.88;52.77;101617.59;5092927;28;20175;-83
2022/08/25 07:58:28;;;;;;;0.10;0.10;;;;;;;25.99;53.69;101621.28;5090856;28;20514;-83
2022/08/25 08:00:54;;;;;;;0.25;0.25;;;;;;;26.07;53.16;101628.91;5090765;28;20419;-83
2022/08/25 08:03:21;;;;;;;0.10;0.10;;;;;;;26.15;51.29;101625.59;5093329;28;20020;-83
2022/08/25 08:05:47;;;;;;;0.10;0.10;;;;;;;26.32;52.47;101629.78;5094230;28;20028;-83
2022/08/25 08:08:13;;;;;;;0.28;0.28;;;;;;;26.43;53.02;101624.41;5094812;28;20042;-83
2022/08/25 08:10:40;;;;;;;0.10;0.10;;;;;;;26.52;51.42;101620.16;5091948;28;20506;-83
2022/08/25 08:13:08;;;;;;;0.20;0.20;;;;;;;26.63;51.05;101622.91;5093322;28;20487;-83
2022/08/25 08:15:35;;;;;;;0.10;0.10;;;;;;;26.73;50.50;101619.47;5090665;28;20043;-84
2022/08/25 08:18:02;;;;;;;0.20;0.20;;;;;;;26.87;51.77;101621.19;5093143;28;20512;-86
2022/08/25 08:20:31;;;;;;;0.40;0.40;;;;;;;26.96;51.27;101620.47;5092810;28;20346;-86
2022/08/25 08:22:57;;;;;;;0.10;0.10;;;;;;;27.08;51.42;101616.78;5090394;28;20111;-86
2022/08/25 08:25:23;;;;;;;0.10;0.10;;;;;;;27.20;51.22;101614.94;5077143;28;20032;-85
2022/08/25 08:27:49;;;;;;;0.30;0.30;;;;;;;27.32;50.24;101617.72;5077979;28;20115;-86
2022/08/25 08:30:15;;;;;;;0.40;0.40;;;;;;;27.40;49.29;101610.72;5076924;28;20056;-86
2022/08/25 08:32:42;;;;;;;0.10;0.10;;;;;;;27.53;50.25;101604.28;5078899;28;20090;-86
2022/08/25 08:35:09;;;;;;;0.30;0.30;;;;;;;27.68;50.05;101613.94;5076373;28;20039;-86
2022/08/25 08:37:38;;;;;;;0.30;0.30;;;;;;;27.71;48.04;101608.22;5093554;28;20021;-86
2022/08/25 08:40:07;;;;;;;1.17;1.02;;;;;;;27.88;49.02;101614.16;5093622;28;20129;-86
2022/08/25 08:42:52;;;;;;;0.30;0.30;;;;;;;28.03;46.81;101612.91;5092134;28;20024;-86
2022/08/25 08:45:28;;;;;;;0.50;0.50;;;;;;;28.16;48.72;101622.81;5092275;28;20028;-86
2022/08/25 08:51:04;;;;;;;0.20;0.20;;;;;;;28.46;46.46;101610.34;5111001;27;20408;-81
2022/08/25 08:56:33;;;;;;;0.10;0.10;;;;;;;28.65;47.40;101618.69;5114132;27;20741;-81
2022/08/25 08:59:08;;;;;;;0.35;0.35;;;;;;;28.78;45.76;101614.97;5092883;28;20145;-82
2022/08/25 09:07:11;;;;;;;0.10;0.10;;;;;;;29.21;46.96;101612.09;4994289;27;20466;-81
2022/08/25 09:09:40;;;;;;;0.20;0.20;;;;;;;29.29;45.40;101608.72;4990312;28;20038;-82
2022/08/25 09:12:40;;;;;;;0.10;0.10;;;;;;;29.51;46.31;101607.69;4976703;28;20092;-82
2022/08/25 09:15:19;;;;;;;0.00;0.00;;;;;;;29.56;45.64;101595.50;4985760;28;20579;-82
2022/08/25 09:18:11;;;;;;;0.52;0.50;;;;;;;29.71;43.00;101596.88;5016461;28;20104;-81
2022/08/25 09:26:39;;;;;;;0.10;0.10;;;;;;;30.00;43.99;101604.31;5084867;27;1895295;-81
2022/08/25 09:29:12;;;;;;;0.10;0.10;;;;;;;30.07;43.70;101599.13;5120471;28;20038;-82
2022/08/25 09:31:41;;;;;;;0.30;0.30;;;;;;;30.19;42.87;101606.22;5117578;28;20030;-81
2022/08/25 09:34:12;;;;;;;0.20;0.20;;;;;;;30.31;42.82;101604.22;5108938;28;20114;-81
2022/08/25 09:36:38;;;;;;;0.20;0.20;;;;;;;30.42;41.48;101595.00;5104275;28;20032;-81
2022/08/25 09:39:06;;;;;;;0.30;0.30;;;;;;;30.59;42.99;101591.59;5107718;28;20477;-81
2022/08/25 09:44:42;;;;;;;0.20;0.20;;;;;;;30.91;39.66;101584.94;5109363;27;20385;-82
2022/08/25 09:47:26;;;;;;;0.28;0.28;;;;;;;31.07;39.77;101583.53;5092259;28;20031;-81
2022/08/25 10:00:33;;;;;;;0.05;0.05;;;;;;;31.15;37.52;101580.91;5052194;28;20402;-81
2022/08/25 10:03:05;;;;;;;0.10;0.10;;;;;;;31.23;38.85;101567.34;5026416;28;20398;-81
2022/08/25 10:05:34;;;;;;;0.20;0.20;;;;;;;31.33;40.21;101572.78;5032590;28;20048;-81
2022/08/25 10:08:09;;;;;;;0.10;0.10;;;;;;;31.44;40.22;101558.03;5026817;28;20026;-81
2022/08/25 10:10:44;;;;;;;0.20;0.20;;;;;;;31.51;39.22;101564.63;5022154;28;20049;-81
2022/08/25 10:13:18;;;;;;;5.22;0.43;;;;;;;31.59;39.41;101564.75;5027979;28;20399;-81
2022/08/25 10:15:45;;;;;;;0.00;0.00;;;;;;;31.65;39.35;101562.44;5032318;28;20026;-81
2022/08/25 10:18:28;;;;;;;0.20;0.20;;;;;;;31.82;39.60;101561.63;5028253;28;20029;-81
2022/08/25 10:21:16;;;;;;;0.10;0.10;;;;;;;31.89;35.48;101557.25;5031639;28;20030;-81
2022/08/25 10:23:48;;;;;;;0.10;0.10;;;;;;;32.05;37.52;101555.69;5021598;28;20038;-81
2022/08/25 10:26:40;;;;;;;0.10;0.10;;;;;;;32.17;37.56;101548.97;5031137;28;20025;-81
2022/08/25 10:29:19;;;;;;;0.10;0.10;;;;;;;32.25;38.11;101540.88;5031465;28;20030;-81
2022/08/25 10:32:14;;;;;;;0.08;0.08;;;;;;;32.45;38.10;101534.34;5021892;28;20029;-81
2022/08/25 10:40:24;;;;;;;0.32;0.32;;;;;;;32.76;37.58;101532.06;5100371;27;20913;-81
2022/08/25 10:45:48;;;;;;;0.20;0.20;;;;;;;32.90;36.42;101528.72;5114202;27;20398;-81
2022/08/25 10:48:26;;;;;;;0.20;0.20;;;;;;;33.05;33.03;101525.41;5108748;28;20055;-81
2022/08/25 10:51:15;;;;;;;0.20;0.20;;;;;;;33.13;36.28;101521.84;5112988;28;20062;-81
2022/08/25 10:53:54;;;;;;;0.30;0.30;;;;;;;33.27;36.39;101523.94;5098721;28;20028;-81
2022/08/25 10:56:44;;;;;;;2.28;0.40;;;;;;;33.48;34.28;101515.31;5114001;28;20123;-81
2022/08/25 10:59:27;;;;;;;1.55;0.38;;;;;;;33.64;35.49;101513.66;5092362;28;20389;-81
2022/08/25 11:02:33;;;;;;;0.30;0.30;;;;;;;33.82;35.45;101511.69;5106964;28;20019;-81
2022/08/25 11:10:50;;;;;;;0.10;0.10;;;;;;;34.26;32.95;101501.41;5148168;27;20901;-81
2022/08/25 11:13:24;;;;;;;0.00;0.00;;;;;;;34.38;31.75;101500.06;5154829;27;20095;-82
2022/08/25 11:16:02;;;;;;;0.20;0.20;;;;;;;34.41;33.22;101499.75;5151367;27;20027;-81
2022/08/25 11:18:30;;;;;;;0.00;0.00;;;;;;;34.45;32.24;101500.28;5148148;27;20515;-81
2022/08/25 11:21:09;;;;;;;0.10;0.10;;;;;;;34.64;31.44;101499.03;5151793;27;20030;-81
2022/08/25 11:23:43;;;;;;;0.22;0.22;;;;;;;34.75;33.20;101500.56;5149642;27;20038;-81
2022/08/25 11:26:13;;;;;;;0.80;0.75;;;;;;;34.75;30.46;101497.81;5148401;27;20023;-80
2022/08/25 11:31:18;;;;;;;0.00;0.00;;;;;;;34.88;30.43;101489.91;5118414;27;20399;-81
2022/08/25 11:33:44;;;;;;;0.10;0.10;;;;;;;34.86;29.31;101491.97;5096712;28;20031;-81
2022/08/25 11:36:32;;;;;;;0.35;0.35;;;;;;;35.11;30.33;101492.75;5095813;28;20032;-81
2022/08/25 11:39:38;;;;;;;0.10;0.10;;;;;;;35.19;29.87;101485.50;5084602;28;20032;-81
2022/08/25 11:42:44;;;;;;;1.10;0.22;;;;;;;35.24;29.42;101477.56;5092040;28;20051;-81
2022/08/25 11:45:41;;;;;;;0.00;0.00;;;;;;;35.26;30.96;101473.59;5091274;28;20059;-81
2022/08/25 11:51:08;;;;;;;0.10;0.10;;;;;;;35.33;29.04;101472.88;5114281;27;20481;-81
2022/08/25 11:56:33;;;;;;;0.10;0.10;;;;;;;35.50;28.67;101470.94;5068302;28;20384;-86
2022/08/25 11:58:59;;;;;;;0.10;0.10;;;;;;;35.52;28.76;101466.97;5069329;28;20507;-86
2022/08/25 12:04:40;;;;;;;0.20;0.20;;;;;;;35.83;29.35;101465.19;5050053;28;20952;-81
2022/08/25 12:12:55;;;;;;;0.17;0.17;;;;;;;35.98;26.65;101463.41;5117783;27;20422;-85
2022/08/25 12:26:41;;;;;;;0.08;0.08;;;;;;;36.45;26.89;101441.31;5101795;27;20423;-82
2022/08/25 12:29:30;;;;;;;0.20;0.20;;;;;;;36.39;26.65;101454.81;5048357;28;20060;-81
2022/08/25 12:35:14;;;;;;;0.00;0.00;;;;;;;36.57;26.39;101439.81;5072876;27;20722;-82
2022/08/25 12:38:03;;;;;;;0.00;0.00;;;;;;;36.70;27.52;101431.72;5073686;28;20029;-82
2022/08/25 12:57:00;;;;;;;0.20;0.20;;;;;;;36.85;24.56;101430.84;5056404;28;20376;-82
2022/08/25 12:59:48;;;;;;;0.10;0.10;;;;;;;37.00;26.13;101439.16;5054522;28;20025;-82
2022/08/25 13:05:25;;;;;;;0.47;0.47;;;;;;;37.04;26.18;101430.31;5125902;27;20419;-82
2022/08/25 13:11:13;;;;;;;0.25;0.20;;;;;;;37.04;25.56;101429.47;5066720;28;20389;-81
2022/08/25 13:13:51;;;;;;;0.10;0.10;;;;;;;37.14;25.01;101431.94;5052694;28;20069;-82
2022/08/25 13:18:57;;;;;;;0.10;0.10;;;;;;;37.23;24.80;101434.38;5073471;28;20147;-82
2022/08/25 13:21:36;;;;;;;0.10;0.10;;;;;;;37.38;22.90;101428.84;5057543;28;20043;-82
2022/08/25 13:24:08;;;;;;;0.20;0.20;;;;;;;37.43;25.51;101422.72;5054319;28;20033;-82
2022/08/25 13:26:40;;;;;;;0.10;0.10;;;;;;;37.47;25.32;101418.50;5064251;28;20039;-82
2022/08/25 13:32:03;;;;;;;0.32;0.32;;;;;;;37.54;24.61;101413.06;5108377;27;20407;-85
2022/08/25 13:34:32;;;;;;;0.00;0.00;;;;;;;37.57;24.74;101412.66;5099079;28;20040;-85
2022/08/25 13:40:20;;;;;;;0.00;0.00;;;;;;;37.87;24.14;101410.69;5095067;28;20496;-85
2022/08/25 13:42:50;;;;;;;0.00;0.00;;;;;;;37.89;24.01;101407.72;5085379;28;20033;-85
2022/08/25 13:45:23;;;;;;;0.10;0.10;;;;;;;37.96;24.65;101411.41;5089119;28;20035;-85
2022/08/25 13:47:51;;;;;;;0.17;0.17;;;;;;;37.99;22.35;101399.91;5088786;28;20028;-85
2022/08/25 13:58:24;;;;;;;0.10;0.10;;;;;;;38.04;25.11;101400.16;5073624;28;20390;-82
2022/08/25 14:01:12;;;;;;;0.05;0.05;;;;;;;38.01;24.29;101395.06;5061466;28;20095;-82
2022/08/25 14:03:42;;;;;;;0.10;0.10;;;;;;;38.08;24.50;101391.47;5059079;28;20031;-82
2022/08/25 14:11:43;;;;;;;0.20;0.20;;;;;;;38.11;24.31;101380.00;5066747;28;20449;-82
2022/08/25 14:14:29;;;;;;;0.32;0.30;;;;;;;38.11;23.70;101388.31;5039961;28;20087;-82